createdAt,value
2018-06-09T00:00:27.080Z,145.50
2018-06-09T00:02:55.587Z,145.07
2018-06-09T00:05:24.092Z,154.50
2018-06-09T00:07:52.521Z,157.07
2018-06-09T00:10:20.917Z,166.80
2018-06-09T00:12:49.292Z,154.37
2018-06-09T00:15:17.622Z,152.07
2018-06-09T00:17:45.967Z,156.00
2018-06-09T00:20:14.445Z,158.17
2018-06-09T00:22:42.875Z,159.83
2018-06-09T00:25:11.724Z,160.53
2018-06-09T00:27:40.592Z,161.10
2018-06-09T00:30:09.053Z,164.30
2018-06-09T00:32:37.701Z,161.80
2018-06-09T00:35:06.156Z,171.63
2018-06-09T00:37:34.639Z,169.53
2018-06-09T00:40:03.185Z,165.87
2018-06-09T00:42:31.715Z,165.17
2018-06-09T00:45:00.251Z,176.33
2018-06-09T00:47:28.836Z,165.27
2018-06-09T00:49:57.254Z,163.60
2018-06-09T00:52:25.617Z,151.93
2018-06-09T00:54:54.089Z,168.80
2018-06-09T00:57:22.545Z,161.37
2018-06-09T00:59:51.005Z,161.37
2018-06-09T01:02:19.481Z,167.13
2018-06-09T01:04:47.941Z,171.30
2018-06-09T01:07:16.383Z,171.70
2018-06-09T01:09:44.717Z,177.17
2018-06-09T01:12:13.083Z,161.30
2018-06-09T01:14:41.677Z,175.00
2018-06-09T01:17:10.043Z,172.53
2018-06-09T01:19:38.457Z,159.37
2018-06-09T01:22:06.860Z,160.40
2018-06-09T01:24:35.233Z,173.90
2018-06-09T01:27:03.638Z,154.03
2018-06-09T01:29:31.973Z,153.97
2018-06-09T01:32:00.397Z,157.97
2018-06-09T01:34:28.769Z,156.87
2018-06-09T01:36:57.241Z,161.23
2018-06-09T01:39:25.557Z,169.90
2018-06-09T01:41:53.934Z,170.20
2018-06-09T01:44:22.329Z,165.27
2018-06-09T01:46:50.729Z,170.70
2018-06-09T01:49:19.231Z,168.23
2018-06-09T01:51:47.611Z,153.37
2018-06-09T01:54:16.024Z,153.87
2018-06-09T01:56:44.474Z,163.17
2018-06-09T01:59:12.955Z,159.93
2018-06-09T02:01:41.544Z,155.63
2018-06-09T02:04:10.001Z,164.57
2018-06-09T02:06:38.385Z,159.83
2018-06-09T02:09:08.979Z,160.10
2018-06-09T02:11:37.468Z,157.67
2018-06-09T02:14:06.324Z,154.07
2018-06-09T02:16:34.801Z,148.30
2018-06-09T02:19:03.231Z,149.37
2018-06-09T02:21:31.595Z,153.40
2018-06-09T02:24:00.037Z,142.20
2018-06-09T02:26:28.462Z,137.03
2018-06-09T02:28:56.930Z,147.70
2018-06-09T02:31:25.389Z,149.67
2018-06-09T02:33:53.837Z,140.53
2018-06-09T02:36:22.362Z,134.37
2018-06-09T02:38:50.827Z,158.77
2018-06-09T02:41:19.314Z,144.73
2018-06-09T02:43:47.828Z,150.33
2018-06-09T02:46:16.294Z,133.67
2018-06-09T02:48:44.747Z,133.83
2018-06-09T02:51:13.233Z,146.50
2018-06-09T02:53:41.757Z,154.37
2018-06-09T02:56:10.233Z,145.57
2018-06-09T02:58:38.654Z,149.27
2018-06-09T03:01:07.163Z,158.53
2018-06-09T03:03:35.608Z,140.57
2018-06-09T03:06:03.979Z,144.97
2018-06-09T03:08:32.380Z,139.87
2018-06-09T03:11:00.765Z,142.40
2018-06-09T03:13:29.292Z,138.03
2018-06-09T03:15:57.688Z,133.50
2018-06-09T03:18:26.061Z,138.97
2018-06-09T03:20:54.491Z,149.50
2018-06-09T03:23:22.979Z,138.63
2018-06-09T03:25:51.458Z,131.13
2018-06-09T03:28:19.875Z,141.90
2018-06-09T03:30:48.287Z,130.93
2018-06-09T03:33:16.754Z,131.13
2018-06-09T03:35:45.154Z,131.13
2018-06-09T03:38:13.609Z,131.80
2018-06-09T03:40:41.983Z,136.77
2018-06-09T03:43:10.453Z,140.40
2018-06-09T03:45:38.918Z,140.67
2018-06-09T03:48:07.326Z,130.77
2018-06-09T03:50:35.697Z,140.60
2018-06-09T03:53:04.017Z,149.67
2018-06-09T03:55:32.398Z,136.67
2018-06-09T03:58:00.857Z,131.87
2018-06-09T04:00:29.253Z,138.40
2018-06-09T04:02:57.744Z,142.30
2018-06-09T04:05:26.177Z,153.57
2018-06-09T04:07:54.538Z,152.53
2018-06-09T04:10:22.981Z,169.80
2018-06-09T04:12:51.406Z,166.77
2018-06-09T04:15:19.789Z,187.53
2018-06-09T04:17:48.225Z,179.20
2018-06-09T04:20:16.770Z,185.43
2018-06-09T04:22:45.189Z,178.60
2018-06-09T04:25:13.597Z,194.57
2018-06-09T04:27:42.002Z,200.40
2018-06-09T04:30:10.501Z,185.43
2018-06-09T04:32:38.895Z,189.97
2018-06-09T04:35:07.285Z,189.67
2018-06-09T04:37:35.702Z,189.87
2018-06-09T04:40:04.233Z,176.47
2018-06-09T04:42:32.641Z,188.80
2018-06-09T04:45:01.069Z,180.80
2018-06-09T04:47:29.393Z,177.00
2018-06-09T04:49:57.760Z,178.77
2018-06-09T04:52:26.069Z,175.87
2018-06-09T04:54:54.485Z,183.37
2018-06-09T04:57:22.933Z,187.30
2018-06-09T04:59:51.523Z,179.67
2018-06-09T05:02:20.520Z,171.17
2018-06-09T05:04:48.959Z,162.93
2018-06-09T05:07:17.470Z,170.70
2018-06-09T05:09:45.867Z,182.67
2018-06-09T05:15:20.572Z,172.50
2018-06-09T05:17:51.645Z,168.93
2018-06-09T05:20:20.082Z,171.10
2018-06-09T05:22:48.799Z,160.73
2018-06-09T05:25:17.478Z,170.70
2018-06-09T05:27:45.851Z,180.50
2018-06-09T05:30:15.172Z,163.27
2018-06-09T05:32:44.198Z,168.33
2018-06-09T05:35:12.833Z,174.23
2018-06-09T05:37:41.597Z,166.33
2018-06-09T05:40:10.124Z,168.63
2018-06-09T05:42:38.570Z,174.83
2018-06-09T05:45:08.038Z,186.53
2018-06-09T05:47:36.534Z,171.47
2018-06-09T05:50:05.187Z,179.57
2018-06-09T05:52:35.884Z,189.33
2018-06-09T05:55:05.325Z,187.03
2018-06-09T05:57:33.894Z,187.80
2018-06-09T06:00:02.450Z,184.80
2018-06-09T06:02:31.424Z,187.47
2018-06-09T06:05:00.069Z,170.13
2018-06-09T06:07:28.483Z,195.23
2018-06-09T06:09:57.329Z,168.67
2018-06-09T06:12:26.022Z,197.13
2018-06-09T06:14:54.898Z,194.57
2018-06-09T06:17:24.561Z,180.90
2018-06-09T06:19:53.035Z,212.33
2018-06-09T06:22:21.648Z,226.60
2018-06-09T06:24:50.477Z,230.17
2018-06-09T06:27:18.816Z,217.40
2018-06-09T06:29:47.447Z,213.60
2018-06-09T06:32:16.237Z,208.27
2018-06-09T06:34:44.624Z,213.97
2018-06-09T06:37:13.300Z,227.60
2018-06-09T06:39:41.835Z,200.20
2018-06-09T06:42:10.241Z,190.70
2018-06-09T06:44:38.655Z,195.07
2018-06-09T06:47:07.001Z,178.90
2018-06-09T06:49:35.745Z,180.27
2018-06-09T06:52:04.525Z,183.43
2018-06-09T06:54:33.819Z,194.93
2018-06-09T06:57:02.563Z,204.27
2018-06-09T06:59:32.085Z,173.90
2018-06-09T07:02:02.851Z,174.57
2018-06-09T07:04:34.677Z,162.30
2018-06-09T07:07:05.641Z,185.30
2018-06-09T07:09:36.484Z,207.13
2018-06-09T07:14:55.506Z,183.33
2018-06-09T07:17:25.462Z,189.17
2018-06-09T07:19:57.997Z,184.93
2018-06-09T07:22:27.119Z,174.87
2018-06-09T07:24:56.221Z,146.47
2018-06-09T07:27:24.842Z,145.50
2018-06-09T07:29:54.212Z,126.40
2018-06-09T07:32:23.629Z,141.93
2018-06-09T07:34:52.309Z,134.80
2018-06-09T07:37:21.719Z,136.63
2018-06-09T07:39:50.510Z,130.27
2018-06-09T07:42:23.615Z,129.53
2018-06-09T07:44:53.557Z,141.67
2018-06-09T07:47:23.065Z,137.97
2018-06-09T07:49:52.124Z,152.93
2018-06-09T07:52:20.712Z,137.47
2018-06-09T07:54:51.806Z,145.63
2018-06-09T07:57:20.744Z,157.90
2018-06-09T07:59:49.212Z,170.90
2018-06-09T08:02:17.873Z,164.60
2018-06-09T08:04:46.394Z,168.00
2018-06-09T08:07:14.737Z,168.17
2018-06-09T08:09:43.271Z,155.57
2018-06-09T08:12:11.629Z,167.83
2018-06-09T08:14:40.081Z,171.57
2018-06-09T08:17:09.733Z,174.30
2018-06-09T08:19:38.513Z,178.60
2018-06-09T08:22:07.014Z,162.17
2018-06-09T08:24:35.714Z,170.83
2018-06-09T08:27:04.450Z,162.57
2018-06-09T08:29:34.162Z,161.27
2018-06-09T08:32:03.260Z,164.33
2018-06-09T08:34:31.731Z,169.77
2018-06-09T08:37:00.591Z,151.30
2018-06-09T08:39:29.134Z,159.33
2018-06-09T08:41:58.123Z,161.00
2018-06-09T08:44:28.550Z,156.80
2018-06-09T08:46:57.110Z,147.70
2018-06-09T08:49:27.295Z,158.33
2018-06-09T08:51:56.266Z,150.27
2018-06-09T08:54:24.657Z,137.00
2018-06-09T08:56:53.190Z,131.30
2018-06-09T08:59:21.637Z,141.37
2018-06-09T09:01:51.001Z,126.80
2018-06-09T09:04:21.439Z,123.60
2018-06-09T09:07:01.326Z,116.37
2018-06-09T09:09:33.269Z,121.07
2018-06-09T09:12:01.926Z,120.80
2018-06-09T09:14:31.633Z,119.83
2018-06-09T09:17:02.493Z,109.97
2018-06-09T09:19:35.798Z,122.50
2018-06-09T09:22:07.569Z,119.70
2018-06-09T09:24:40.324Z,112.27
2018-06-09T09:27:09.985Z,99.57
2018-06-09T09:29:38.861Z,107.90
2018-06-09T09:32:09.465Z,98.17
2018-06-09T09:34:38.289Z,95.73
2018-06-09T09:37:10.606Z,100.37
2018-06-09T09:39:44.863Z,99.13
2018-06-09T09:42:21.277Z,85.13
2018-06-09T09:44:51.073Z,78.40
2018-06-09T09:47:20.338Z,87.07
2018-06-09T09:49:48.825Z,88.53
2018-06-09T09:52:18.695Z,86.67
2018-06-09T09:54:47.164Z,76.97
2018-06-09T09:57:15.785Z,74.53
2018-06-09T09:59:44.333Z,84.00
2018-06-09T10:02:13.168Z,71.53
2018-06-09T10:04:42.565Z,74.40
2018-06-09T10:07:11.758Z,70.00
2018-06-09T10:09:41.605Z,72.63
2018-06-09T10:12:10.979Z,74.63
2018-06-09T10:14:39.320Z,74.07
2018-06-09T10:17:10.066Z,70.23
2018-06-09T10:19:38.844Z,66.07
2018-06-09T10:22:08.119Z,71.57
2018-06-09T10:24:37.004Z,70.70
2018-06-09T10:27:05.744Z,69.17
2018-06-09T10:29:34.284Z,79.73
2018-06-09T10:32:02.982Z,76.00
2018-06-09T10:34:31.385Z,72.57
2018-06-09T10:36:59.728Z,73.03
2018-06-09T10:39:28.096Z,66.53
2018-06-09T10:41:56.608Z,60.30
2018-06-09T10:44:25.068Z,65.67
2018-06-09T10:46:53.421Z,63.20
2018-06-09T10:49:21.714Z,61.33
2018-06-09T10:51:55.615Z,55.93
2018-06-09T10:54:24.158Z,57.00
2018-06-09T10:56:52.477Z,49.20
2018-06-09T10:59:20.933Z,52.40
2018-06-09T11:01:49.331Z,50.23
2018-06-09T11:04:17.757Z,49.27
2018-06-09T11:06:46.168Z,52.23
2018-06-09T11:09:14.513Z,55.30
2018-06-09T11:11:42.824Z,52.93
2018-06-09T11:14:15.324Z,46.43
2018-06-09T11:16:44.077Z,51.43
2018-06-09T11:19:12.555Z,50.43
2018-06-09T11:21:40.938Z,49.93
2018-06-09T11:24:11.325Z,54.57
2018-06-09T11:26:40.212Z,53.43
2018-06-09T11:29:12.973Z,44.63
2018-06-09T11:31:44.488Z,51.83
2018-06-09T11:34:14.134Z,49.03
2018-06-09T11:37:13.819Z,47.80
2018-06-09T11:39:43.694Z,51.20
2018-06-09T11:43:01.029Z,51.97
2018-06-09T11:45:30.717Z,49.53
2018-06-09T11:48:05.267Z,44.47
2018-06-09T17:19:07.644Z,25.40
2018-06-09T17:27:39.084Z,28.13
2018-06-09T17:30:28.682Z,31.63
2018-06-09T17:33:07.263Z,36.67
2018-06-09T17:35:49.617Z,34.53
2018-06-09T17:38:21.397Z,39.80
2018-06-09T17:40:49.910Z,28.77
2018-06-09T17:43:18.376Z,32.50
2018-06-09T17:45:46.835Z,35.33
2018-06-09T17:48:15.366Z,29.67
2018-06-09T17:50:43.875Z,25.97
2018-06-09T17:53:12.283Z,36.80
2018-06-09T17:55:41.068Z,35.43
2018-06-09T17:58:13.895Z,29.53
2018-06-09T18:00:42.329Z,34.63
2018-06-09T18:03:10.984Z,32.43
2018-06-09T18:05:39.617Z,36.10
2018-06-09T18:08:08.261Z,35.10
2018-06-09T18:10:37.129Z,37.10
2018-06-09T18:13:06.290Z,31.90
2018-06-09T18:15:34.761Z,30.53
2018-06-09T18:18:03.841Z,30.97
2018-06-09T18:20:32.836Z,31.77
2018-06-09T18:23:01.937Z,32.70
2018-06-09T18:25:30.960Z,36.77
2018-06-09T18:27:59.511Z,31.20
2018-06-09T18:30:28.078Z,28.53
2018-06-09T18:32:56.704Z,31.00
2018-06-09T18:35:25.081Z,27.13
2018-06-09T18:37:53.638Z,27.10
2018-06-09T18:40:22.145Z,30.40
2018-06-09T18:42:55.996Z,35.40
2018-06-09T18:45:24.650Z,35.50
2018-06-09T18:47:53.743Z,28.33
2018-06-09T18:50:22.669Z,30.77
2018-06-09T18:52:51.630Z,26.97
2018-06-09T18:55:20.904Z,31.30
2018-06-09T18:57:50.473Z,27.47
2018-06-09T19:00:22.470Z,31.70
2018-06-09T19:03:02.984Z,29.73
2018-06-09T19:05:32.848Z,37.73
2018-06-09T19:08:02.742Z,27.13
2018-06-09T19:10:31.671Z,31.63
2018-06-09T19:52:43.055Z,39.33
2018-06-09T19:55:17.011Z,40.50
2018-06-09T19:57:45.930Z,42.93
2018-06-09T20:00:16.715Z,35.30
2018-06-09T20:02:45.864Z,39.37
2018-06-09T20:05:20.308Z,39.10
2018-06-09T20:07:50.182Z,44.77
2018-06-09T20:10:20.592Z,38.63
2018-06-09T20:12:49.496Z,41.10
2018-06-09T20:15:19.495Z,37.90
2018-06-09T20:17:55.225Z,39.57
2018-06-09T20:20:24.022Z,31.60
2018-06-09T20:22:57.598Z,36.60
2018-06-09T20:25:35.644Z,40.73
2018-06-09T20:31:04.886Z,33.00
2018-06-09T20:33:34.690Z,41.50
2018-06-09T20:36:04.188Z,40.07
2018-06-09T20:38:35.028Z,34.73
2018-06-09T20:41:05.322Z,41.23
2018-06-09T20:43:37.910Z,39.60
2018-06-09T20:46:11.818Z,52.70
2018-06-09T20:48:46.320Z,52.80
2018-06-09T20:51:19.644Z,41.33
2018-06-09T20:53:49.003Z,44.93
2018-06-09T20:56:18.984Z,39.17
2018-06-09T20:58:56.749Z,44.17
2018-06-09T21:01:48.275Z,40.13
2018-06-09T21:04:19.254Z,32.47
2018-06-09T22:01:51.742Z,49.47
2018-06-09T22:04:27.097Z,43.97
2018-06-09T22:07:02.916Z,39.07
2018-06-09T22:09:37.305Z,49.53
2018-06-09T22:12:11.954Z,46.67
2018-06-09T22:14:44.274Z,56.47
2018-06-09T22:17:15.621Z,68.30
2018-06-09T22:19:48.468Z,55.73
2018-06-09T22:22:20.330Z,73.33
2018-06-09T22:24:49.158Z,53.10
2018-06-09T22:27:26.101Z,45.77
2018-06-09T22:29:55.439Z,40.70
2018-06-09T22:32:29.966Z,37.57
2018-06-09T22:34:59.778Z,35.97
2018-06-09T22:37:34.149Z,36.00
2018-06-09T22:40:19.003Z,32.20
2018-06-09T22:42:50.896Z,25.47
2018-06-09T22:45:20.641Z,25.60
2018-06-09T22:47:49.956Z,22.73
2018-06-09T22:50:20.517Z,26.30
2018-06-09T22:52:51.398Z,22.10
2018-06-09T22:55:20.873Z,21.73
2018-06-09T22:57:50.081Z,18.97
2018-06-09T23:00:27.278Z,27.30
2018-06-09T23:02:58.607Z,22.37
2018-06-09T23:05:41.910Z,18.90
2018-06-09T23:08:10.962Z,16.70
2018-06-09T23:10:39.762Z,18.47
2018-06-09T23:13:11.438Z,17.80
2018-06-09T23:15:40.285Z,16.37
2018-06-09T23:18:09.851Z,16.20
2018-06-09T23:20:39.363Z,18.17
2018-06-09T23:23:09.291Z,13.53
2018-06-09T23:25:39.106Z,19.27
2018-06-09T23:28:08.894Z,18.90
2018-06-09T23:30:37.671Z,18.37
2018-06-09T23:33:06.297Z,23.27
2018-06-09T23:35:36.374Z,19.10
2018-06-09T23:38:07.240Z,18.40
2018-06-09T23:40:37.356Z,15.90
2018-06-09T23:43:07.177Z,16.03
2018-06-09T23:45:37.577Z,26.07
2018-06-09T23:48:07.930Z,26.53
2018-06-09T23:50:41.950Z,29.47
2018-06-09T23:53:12.444Z,27.27
2018-06-09T23:55:43.172Z,26.03
2018-06-09T23:58:13.360Z,31.30
